Portada
METAR-TAF:

METAR-TAF

Aeroports :

Talara, Perú

latitud: 04-34S, longitud: 081-15W, altitud: 85 m

Observació

L'informe es va fer fa 5 hores i 59 minuts, a les 23:00 UTC
Vent 17 kt del Sud
Temperatura 20°C
Humitat 78%
Pressió 1012 hPa
Visibilitat 10 km o més
sense núvols per sota de 1500 mi sense presència de cumulonimbus.

METAR: SPYL 212300Z 17017KT CAVOK 20/16 Q1012 RMK BIRD HAZARD RWY 17/35 PP000

Hora: 23:59 (04:59 UTC)

Pronòstic

L'informe es va fer fa 12 hores i 29 minuts, a les 16:30 UTC
Pronòstic vàlid del 21 a les 18 UTC al 22 a les 18 UTC
Vent 16 kt del Sud
Visibilitat 10 km o més
sense núvols per sota de 1500 mi sense presència de cumulonimbus.
Temporalment
l' 22 a les 12 UTC al 22 a les 14 UTC
Vent 6 kt del Sud-Oest
Núvols disperses a una alçada de 4000 ft

TAF: SPYL 211630Z 2118/2218 18016KT CAVOK TX27/2119Z TN15/2211Z TEMPO 2212/2214 22006KT SCT040

Observacions i pronòstics meteorològics de més de 4000 aeroports (METAR i TAF).

Les estacions disponibles són els punts grocs i vermells al mapa.

Posi el ratolí al punt desitjat per veure el nom de l'estació.

Feu clic per veure les observacions i els pronòstics meteorològics.

Per canviar el mapa: feu clic els botons verds amb una creu de color negre per apropar; al botó verd amb un guió per allunyar la imatge; o en les fletxes verdes per a mapes adjacents.


METAR-TAF: